Sacramento, California
Traffic Map
Current Weather Conditions
Sacramento, California
Clear
Clear
17°
Feels Like: 17°
Wind Chill: 17° Ceiling: Unl
Heat Index: 17° Visibility: 10mi
Dew Point: Wind: 7mph
Humidity: 60% Direction: 320° (NW)
Pressure: 29.89in Gusts: 0mph
Raw Report DataKSAC 161553Z 32006KT 10SM CLR 17/09 A2989 RMK AO2 SLP121 T01720094
Traffic Incident Summary
Active as of:
Severity:
Category:
InformationThere was an issue retrieving the traffic information for this location. Please try a different location or try again shortly.
Advertisements
At Last! Intellicast now available for iPhone and Android